Terminal Aerodrome Forecast
Issued by NWS Wakefield, VA

Home | Current Version | Previous Version | Text Only | Print | Product List | Glossary On
Versions: 1 2 3 4 5 6 7 8 9 10 11 12 13 14 15 16 17 18 19 20
000
FTUS41 KAKQ 022340
TAFSBY
TAF
KSBY 022340Z 0300/0324 05010KT P6SM SCT020 BKN100
      TEMPO 0300/0302 5SM -RA BR BKN007
     FM030200 04010KT 5SM -RA BR OVC007
     FM030400 03008KT 3SM -RA BR OVC004
     FM030800 02010G18KT 4SM -RA BR OVC003
     FM031500 04011KT 3SM -RA BR OVC008=

USA.gov is the U.S. government's official web portal to all federal, state and local government web resources and services.